Terminal Aerodrome Forecast
Issued by NWS Riverton, WY

Home | Current Version | Previous Version | Text Only | Print | Product List | Glossary On
Versions: 1 2 3 4 5 6 7 8 9 10 11 12 13 14 15
000
FTUS45 KRIW 041722
TAFRIW
TAF
KRIW 041722Z 0418/0518 30012KT P6SM BKN080
     FM042200 35011G16KT P6SM FEW100
     FM050300 31007KT P6SM SCT200=

USA.gov is the U.S. government's official web portal to all federal, state and local government web resources and services.